Time;durP1;ratioP1;P1;durP2;ratioP2;P2;SDS_P1;SDS_P2;PMS_P1;PMS_P2;Temp;Humidity;BMP_temperature;BMP_pressure;BME280_temperature;BME280_humidity;BME280_pressure;Samples;Min_cycle;Max_cycle;Signal;HPM_P1;HPM_P2
2022/02/02 00:00:47;;;;;;;0.60;0.60;;;;;;;7.77;100.00;102102.84;5000364;28;20400;-81
2022/02/02 00:03:18;;;;;;;0.50;0.50;;;;;;;7.81;100.00;102117.69;4999793;28;20033;-82
2022/02/02 00:08:21;;;;;;;0.50;0.50;;;;;;;7.84;100.00;102116.59;5000294;28;20120;-81
2022/02/02 00:16:09;;;;;;;0.50;0.50;;;;;;;7.84;100.00;102113.91;5000775;28;20061;-83
2022/02/02 00:18:58;;;;;;;0.50;0.50;;;;;;;7.85;100.00;102113.78;4983392;28;20092;-82
2022/02/02 00:21:53;;;;;;;0.50;0.50;;;;;;;7.85;100.00;102105.75;4986944;28;20108;-85
2022/02/02 00:27:08;;;;;;;0.50;0.50;;;;;;;7.84;100.00;102108.56;4966403;28;20087;-83
2022/02/02 00:29:49;;;;;;;0.47;0.47;;;;;;;7.78;100.00;102085.81;4999416;28;20126;-82
2022/02/02 00:32:50;;;;;;;0.60;0.60;;;;;;;7.86;100.00;102110.16;4989834;28;20038;-84
2022/02/02 00:35:18;;;;;;;7.75;1.25;;;;;;;7.85;100.00;102097.72;5001256;28;20030;-81
2022/02/02 00:37:44;;;;;;;0.50;0.50;;;;;;;7.81;100.00;102090.91;5004535;28;20470;-81
2022/02/02 00:40:10;;;;;;;0.40;0.40;;;;;;;7.86;100.00;102102.09;4988242;28;20029;-82
2022/02/02 00:42:36;;;;;;;0.50;0.50;;;;;;;7.63;100.00;102069.16;4967038;28;20467;-82
2022/02/02 00:45:01;;;;;;;0.43;0.43;;;;;;;7.85;100.00;102108.41;4987505;28;20424;-81
2022/02/02 00:47:34;;;;;;;0.50;0.50;;;;;;;7.76;100.00;102092.28;5008133;28;20034;-81
2022/02/02 00:49:59;;;;;;;0.47;0.47;;;;;;;7.82;100.00;102114.03;5007657;28;20128;-81
2022/02/02 00:52:26;;;;;;;0.50;0.50;;;;;;;7.80;100.00;102104.41;5007970;28;20034;-81
2022/02/02 00:54:52;;;;;;;0.50;0.50;;;;;;;7.83;100.00;102115.75;5008564;28;20038;-83
2022/02/02 00:57:17;;;;;;;0.50;0.50;;;;;;;7.67;100.00;102089.38;4995192;28;20092;-82
2022/02/02 00:59:43;;;;;;;0.50;0.50;;;;;;;7.75;100.00;102095.91;4977938;28;20030;-81
2022/02/02 01:02:10;;;;;;;0.40;0.40;;;;;;;7.78;100.00;102095.66;4977963;28;20124;-81
2022/02/02 01:04:36;;;;;;;0.50;0.50;;;;;;;7.74;100.00;102076.31;4993721;28;20109;-81
2022/02/02 01:12:29;;;;;;;0.52;0.52;;;;;;;7.73;100.00;102069.28;5008941;28;20040;-82
2022/02/02 01:20:33;;;;;;;0.40;0.40;;;;;;;7.70;100.00;102074.88;4994072;28;20480;-83
2022/02/02 01:28:28;;;;;;;0.45;0.45;;;;;;;7.74;100.00;102092.38;5007790;28;20037;-81
2022/02/02 01:30:59;;;;;;;0.40;0.40;;;;;;;7.56;100.00;102059.06;4993382;28;20026;-81
2022/02/02 01:33:25;;;;;;;0.40;0.40;;;;;;;7.76;100.00;102085.09;5008304;28;20072;-82
2022/02/02 01:35:50;;;;;;;0.70;0.70;;;;;;;7.75;100.00;102080.69;4993163;28;20077;-82
2022/02/02 01:38:16;;;;;;;0.50;0.50;;;;;;;7.74;100.00;102079.00;5009969;28;20034;-82
2022/02/02 01:40:48;;;;;;;1.45;0.60;;;;;;;7.71;100.00;102065.88;4994507;28;20423;-82
2022/02/02 01:43:19;;;;;;;1.35;1.02;;;;;;;7.83;100.00;102080.94;4992636;28;20030;-81
2022/02/02 01:45:50;;;;;;;0.50;0.50;;;;;;;7.86;100.00;102078.00;5006844;28;20080;-82
2022/02/02 01:55:50;;;;;;;0.50;0.50;;;;;;;7.98;100.00;102086.84;5004708;28;20069;-82
2022/02/02 02:00:47;;;;;;;0.50;0.50;;;;;;;7.98;100.00;102069.94;4993811;28;20115;-81
2022/02/02 02:03:13;;;;;;;0.50;0.50;;;;;;;8.04;100.00;102082.81;5006320;28;21360;-81
2022/02/02 02:05:39;;;;;;;0.50;0.50;;;;;;;8.01;100.00;102070.53;5007135;28;20041;-83
2022/02/02 02:08:05;;;;;;;0.50;0.50;;;;;;;8.01;100.00;102067.00;4990154;28;20188;-81
2022/02/02 02:10:30;;;;;;;0.40;0.40;;;;;;;8.07;100.00;102072.72;5007661;28;20061;-82
2022/02/02 02:13:08;;;;;;;0.60;0.60;;;;;;;8.07;100.00;102064.69;5010783;28;20030;-81
2022/02/02 02:15:34;;;;;;;0.50;0.50;;;;;;;8.07;100.00;102056.63;4976104;28;20387;-81
2022/02/02 02:18:01;;;;;;;0.50;0.50;;;;;;;8.13;100.00;102057.94;5008011;28;20026;-83
2022/02/02 02:20:27;;;;;;;0.80;0.80;;;;;;;8.21;100.00;102065.34;4997688;28;20880;-81
2022/02/02 02:22:53;;;;;;;0.50;0.50;;;;;;;8.20;100.00;102058.28;5007890;28;20040;-81
2022/02/02 02:25:29;;;;;;;0.70;0.70;;;;;;;8.25;100.00;102062.25;4991184;28;20254;-81
2022/02/02 02:28:07;;;;;;;0.50;0.50;;;;;;;8.30;100.00;102067.25;5007968;28;20042;-83
2022/02/02 02:30:50;;;;;;;0.50;0.50;;;;;;;8.30;100.00;102065.41;4990526;28;20041;-85
2022/02/02 02:57:49;;;;;;;0.50;0.50;;;;;;;8.23;100.00;102024.06;5009107;28;20045;-82
2022/02/02 03:56:40;;;;;;;0.98;0.98;;;;;;;8.33;100.00;101995.47;5009869;28;20038;-83
2022/02/02 04:04:24;;;;;;;24.17;1.73;;;;;;;8.27;100.00;101985.28;4986718;28;20061;-81
2022/02/02 04:09:21;;;;;;;1.20;1.08;;;;;;;8.33;100.00;101989.25;5008039;28;20589;-84
2022/02/02 04:11:57;;;;;;;0.90;0.75;;;;;;;8.29;100.00;101980.66;5003815;28;20038;-80
2022/02/02 05:48:27;;;;;;;9.02;1.60;;;;;;;8.05;100.00;101945.25;5006310;28;20044;-81
2022/02/02 05:53:39;;;;;;;3.05;1.33;;;;;;;8.02;100.00;101950.81;5000464;28;20036;-83
2022/02/02 05:56:06;;;;;;;11.95;1.90;;;;;;;7.96;100.00;101936.13;4981845;28;20046;-82
2022/02/02 05:58:34;;;;;;;17.50;2.95;;;;;;;7.80;100.00;101927.69;4993381;28;20610;-82
2022/02/02 06:01:00;;;;;;;4.13;1.63;;;;;;;7.68;100.00;101934.94;4985787;28;20045;-85
2022/02/02 06:03:45;;;;;;;10.18;1.88;;;;;;;7.63;100.00;101924.63;5001092;28;20058;-84
2022/02/02 06:06:11;;;;;;;8.95;2.28;;;;;;;7.67;100.00;101942.13;4993296;28;20128;-81
2022/02/02 06:08:41;;;;;;;11.23;2.10;;;;;;;7.71;100.00;101940.03;4978495;28;20091;-82
2022/02/02 06:11:10;;;;;;;22.17;3.28;;;;;;;7.74;100.00;101937.09;4991931;28;20066;-81
2022/02/02 06:13:42;;;;;;;15.23;3.80;;;;;;;7.63;100.00;101910.38;4991322;28;20121;-80
2022/02/02 06:16:08;;;;;;;26.42;2.55;;;;;;;7.81;100.00;101930.25;4991441;28;20463;-81
2022/02/02 06:18:35;;;;;;;18.90;2.67;;;;;;;7.81;100.00;101924.91;4991723;28;20492;-81
2022/02/02 06:21:05;;;;;;;12.98;3.67;;;;;;;7.81;100.00;101914.19;5009729;28;20068;-82
2022/02/02 06:23:35;;;;;;;17.30;2.75;;;;;;;7.89;100.00;101926.94;4994193;28;20062;-81
2022/02/02 06:26:03;;;;;;;5.25;1.92;;;;;;;7.91;100.00;101931.19;5009575;28;20869;-82
2022/02/02 06:28:34;;;;;;;23.48;3.50;;;;;;;7.83;100.00;101912.25;4992497;28;20045;-82
2022/02/02 06:31:05;;;;;;;28.38;4.75;;;;;;;7.82;100.00;101921.25;4992858;28;20034;-81
2022/02/02 06:33:34;;;;;;;34.47;3.65;;;;;;;7.81;100.00;101932.09;4995497;28;20037;-82
2022/02/02 06:36:02;;;;;;;16.27;3.50;;;;;;;7.80;100.00;101933.91;5008599;28;20046;-84
2022/02/02 06:38:29;;;;;;;15.98;3.05;;;;;;;7.63;100.00;101938.00;5007401;28;20068;-83
2022/02/02 06:40:56;;;;;;;20.55;3.00;;;;;;;7.43;100.00;101920.91;5008184;28;20476;-81
2022/02/02 06:43:23;;;;;;;17.88;2.83;;;;;;;7.50;100.00;101945.34;4992054;28;20019;-81
2022/02/02 06:45:49;;;;;;;9.50;1.63;;;;;;;7.42;100.00;101953.16;5005865;28;20042;-83
2022/02/02 06:48:17;;;;;;;14.70;3.03;;;;;;;7.25;100.00;101930.44;5006546;28;20491;-81
2022/02/02 06:50:52;;;;;;;13.25;2.78;;;;;;;7.11;100.00;101925.38;4975551;28;20724;-81
2022/02/02 06:55:59;;;;;;;10.38;2.95;;;;;;;7.10;100.00;101956.63;5009486;28;20449;-82
2022/02/02 06:58:50;;;;;;;17.40;2.88;;;;;;;6.92;100.00;101937.56;5007598;28;20029;-81
2022/02/02 07:01:47;;;;;;;21.05;2.83;;;;;;;6.96;100.00;101960.41;5027866;28;20113;-81
2022/02/02 07:06:52;;;;;;;19.50;3.60;;;;;;;6.98;100.00;101969.16;5005425;28;20038;-81
2022/02/02 07:32:08;;;;;;;19.23;5.63;;;;;;;7.07;100.00;101967.56;5008099;28;20030;-82
2022/02/02 07:34:41;;;;;;;29.23;8.63;;;;;;;7.03;100.00;101964.28;4991566;28;20041;-81
2022/02/02 07:37:11;;;;;;;28.27;7.88;;;;;;;6.83;100.00;101941.84;5008862;28;20033;-81
2022/02/02 07:39:38;;;;;;;18.65;6.75;;;;;;;6.85;100.00;101956.88;4992821;28;20073;-81
2022/02/02 07:42:06;;;;;;;23.25;8.25;;;;;;;6.85;100.00;101956.88;4992250;28;20045;-83
2022/02/02 07:44:35;;;;;;;25.27;10.27;;;;;;;6.88;100.00;101967.31;4991939;28;20049;-81
2022/02/02 07:47:06;;;;;;;20.50;8.35;;;;;;;6.90;100.00;101954.69;5009469;28;20034;-81
2022/02/02 07:49:35;;;;;;;28.05;9.25;;;;;;;7.03;100.00;101953.59;4999213;28;20046;-80
2022/02/02 07:52:02;;;;;;;21.55;3.85;;;;;;;7.08;100.00;101960.41;5005895;28;20045;-81
2022/02/02 07:54:35;;;;;;;16.88;3.38;;;;;;;7.18;100.00;101964.03;5004535;28;20030;-81
2022/02/02 07:57:10;;;;;;;18.05;2.92;;;;;;;7.23;100.00;101951.16;4991767;28;20045;-82
2022/02/02 07:59:56;;;;;;;11.02;2.30;;;;;;;7.24;100.00;101952.81;4975303;28;20040;-82
2022/02/02 08:02:38;;;;;;;17.80;5.07;;;;;;;7.31;100.00;101959.38;4992655;28;20058;-82
2022/02/02 08:05:09;;;;;;;21.70;6.28;;;;;;;7.35;100.00;101955.47;4978647;28;20175;-80
2022/02/02 08:07:41;;;;;;;27.33;8.50;;;;;;;7.36;100.00;101943.81;5007573;28;20025;-82
2022/02/02 08:12:43;;;;;;;24.13;7.22;;;;;;;7.36;100.00;101943.81;4991097;28;20056;-82
2022/02/02 08:15:10;;;;;;;38.55;6.97;;;;;;;7.48;100.00;101955.31;4979908;28;20026;-81
2022/02/02 08:17:39;;;;;;;25.08;6.40;;;;;;;7.42;100.00;101939.78;4988832;28;20041;-81
2022/02/02 08:20:06;;;;;;;31.23;6.78;;;;;;;7.46;100.00;101935.84;5000257;28;20030;-82
2022/02/02 08:22:32;;;;;;;12.73;3.70;;;;;;;7.48;100.00;101958.00;5006953;28;20030;-83
2022/02/02 08:24:58;;;;;;;13.50;2.60;;;;;;;7.51;100.00;101963.09;4987628;28;20076;-82
2022/02/02 08:27:24;;;;;;;12.43;3.38;;;;;;;7.52;100.00;101967.50;4975229;28;20057;-86
2022/02/02 08:29:49;;;;;;;13.00;3.15;;;;;;;7.57;100.00;101969.75;5005733;28;20108;-82
2022/02/02 08:32:16;;;;;;;8.63;1.95;;;;;;;7.59;100.00;101978.53;4990290;28;20065;-84
2022/02/02 08:34:47;;;;;;;13.13;2.20;;;;;;;7.62;100.00;101972.91;4986532;28;20030;-81
2022/02/02 08:37:13;;;;;;;11.52;1.95;;;;;;;7.63;100.00;101970.13;5005692;28;20026;-83
2022/02/02 08:42:42;;;;;;;19.63;3.95;;;;;;;7.65;100.00;101972.69;4944336;28;20040;-83
2022/02/02 08:45:18;;;;;;;9.75;2.75;;;;;;;7.55;100.00;101937.78;4977965;28;20050;-83
2022/02/02 08:47:57;;;;;;;19.02;3.53;;;;;;;7.68;100.00;101964.41;4987408;28;20069;-82
2022/02/02 08:50:39;;;;;;;17.20;4.75;;;;;;;7.64;100.00;101939.69;4988448;28;20049;-82
2022/02/02 08:53:15;;;;;;;13.95;2.58;;;;;;;7.75;100.00;101945.97;5002230;28;20029;-82
2022/02/02 08:58:42;;;;;;;33.42;6.63;;;;;;;7.78;100.00;101975.16;5006596;28;20395;-82
2022/02/02 09:01:16;;;;;;;23.10;4.90;;;;;;;7.81;100.00;101974.94;4974902;28;20046;-83
2022/02/02 09:06:34;;;;;;;20.23;4.35;;;;;;;7.79;100.00;101934.88;5009906;28;20120;-83
2022/02/02 09:09:17;;;;;;;30.17;6.05;;;;;;;7.60;100.00;101891.91;5006273;28;20041;-83
2022/02/02 09:23:26;;;;;;;7.45;1.45;;;;;;;8.01;100.00;101939.28;5009674;28;20037;-82
2022/02/02 09:25:21;;;;;;;16.27;5.22;;;;;;;8.02;100.00;101926.72;4983962;28;20070;-83
2022/02/02 09:35:43;;;;;;;24.33;3.42;;;;;;;8.14;100.00;101910.47;5006729;28;20041;-82
2022/02/02 09:38:09;;;;;;;14.93;3.58;;;;;;;8.16;100.00;101896.94;4988235;28;20115;-82
2022/02/02 09:41:15;;;;;;;15.52;4.32;;;;;;;8.32;100.00;101907.19;5009085;28;20045;-81
2022/02/02 09:43:29;;;;;;;19.67;4.82;;;;;;;8.38;100.00;101918.22;4999562;28;20045;-82
2022/02/02 09:46:04;;;;;;;13.55;4.63;;;;;;;8.37;100.00;101889.72;5018306;28;20384;-81
2022/02/02 09:48:43;;;;;;;4.70;1.75;;;;;;;8.43;100.00;101898.25;4971161;28;20044;-82
2022/02/02 09:51:12;;;;;;;14.20;3.33;;;;;;;8.37;100.00;101895.09;5004939;28;20045;-81
2022/02/02 09:53:52;;;;;;;16.75;4.07;;;;;;;8.31;100.00;101887.59;5008579;28;20061;-81
2022/02/02 10:05:03;;;;;;;10.80;3.53;;;;;;;8.66;100.00;101899.75;5011636;28;20030;-82
2022/02/02 10:07:33;;;;;;;17.83;4.07;;;;;;;8.84;100.00;101907.13;4991696;28;20040;-82
2022/02/02 10:10:56;;;;;;;13.52;3.80;;;;;;;8.83;100.00;101905.44;4995213;28;20092;-81
2022/02/02 10:15:22;;;;;;;8.35;3.05;;;;;;;8.92;100.00;101889.41;5009240;28;20030;-81
2022/02/02 10:18:05;;;;;;;20.10;4.18;;;;;;;9.16;100.00;101905.13;4995450;28;20395;-81
2022/02/02 10:20:32;;;;;;;9.30;2.58;;;;;;;9.17;100.00;101896.06;4979537;28;20119;-82
2022/02/02 10:22:59;;;;;;;25.40;4.63;;;;;;;9.28;100.00;101923.78;4975861;28;20042;-82
2022/02/02 10:25:29;;;;;;;16.20;3.72;;;;;;;9.10;100.00;101902.97;4975313;28;20483;-81
2022/02/02 10:28:11;;;;;;;14.27;2.17;;;;;;;9.33;100.00;101929.56;5010610;28;20084;-84
2022/02/02 10:30:40;;;;;;;12.93;3.30;;;;;;;9.37;100.00;101904.16;5000390;28;20494;-83
2022/02/02 10:33:11;;;;;;;19.08;3.85;;;;;;;9.41;100.00;101890.31;4990990;28;20042;-82
2022/02/02 10:35:39;;;;;;;20.10;4.40;;;;;;;9.40;100.00;101871.69;4978450;28;20117;-79
2022/02/02 10:38:11;;;;;;;18.35;3.85;;;;;;;9.61;100.00;101895.69;5009436;28;20026;-86
2022/02/02 10:43:39;;;;;;;22.63;5.50;;;;;;;9.82;100.00;101884.81;4976171;28;20392;-84
2022/02/02 10:46:35;;;;;;;16.98;3.33;;;;;;;9.79;100.00;101879.69;4979093;28;20044;-86
2022/02/02 10:49:15;;;;;;;15.05;3.47;;;;;;;9.74;100.00;101868.53;4997742;28;20464;-86
2022/02/02 10:51:49;;;;;;;14.88;3.05;;;;;;;9.74;100.00;101860.47;5010376;28;20088;-85
2022/02/02 10:56:58;;;;;;;25.73;4.63;;;;;;;9.86;100.00;101857.47;5012331;28;20109;-85
2022/02/02 10:59:43;;;;;;;15.93;3.58;;;;;;;10.11;100.00;101850.66;4996208;28;20038;-84
2022/02/02 11:07:23;;;;;;;19.75;4.90;;;;;;;14.10;98.66;101848.94;4992907;28;20037;-86
2022/02/02 11:09:49;;;;;;;12.07;3.80;;;;;;;16.80;87.00;101841.50;4994138;28;20037;-85
2022/02/02 11:12:17;;;;;;;10.85;2.40;;;;;;;17.67;82.75;101823.38;4995175;28;20044;-86
2022/02/02 11:14:48;;;;;;;14.75;3.00;;;;;;;18.35;80.26;101819.03;4994838;28;20114;-86
2022/02/02 11:17:31;;;;;;;14.27;2.47;;;;;;;19.50;76.35;101833.69;4975613;28;20042;-86
2022/02/02 11:20:04;;;;;;;15.80;3.13;;;;;;;19.54;72.92;101828.63;4977201;28;20152;-85
2022/02/02 11:22:35;;;;;;;18.23;3.00;;;;;;;18.64;74.03;101800.72;5010009;28;20038;-86
2022/02/02 11:25:04;;;;;;;11.68;2.97;;;;;;;16.48;81.10;101826.47;4994134;28;20033;-85
2022/02/02 11:27:40;;;;;;;9.70;2.05;;;;;;;15.18;87.64;101821.25;5011296;28;20483;-85
2022/02/02 11:30:22;;;;;;;11.00;2.88;;;;;;;14.57;90.71;101820.25;4977707;28;20123;-86
2022/02/02 11:32:52;;;;;;;15.07;2.45;;;;;;;13.32;96.43;101796.34;5010183;28;20056;-86
2022/02/02 11:35:50;;;;;;;8.15;1.90;;;;;;;12.87;99.56;101812.97;5026465;28;20113;-86
2022/02/02 11:38:27;;;;;;;11.85;1.92;;;;;;;12.71;100.00;101820.00;4994201;28;20029;-79
2022/02/02 11:47:08;;;;;;;13.23;2.67;;;;;;;15.25;92.50;101815.97;5025304;28;20045;-82
2022/02/02 11:50:05;;;;;;;16.83;3.53;;;;;;;16.84;86.23;101806.69;5010806;28;20886;-81
2022/02/02 11:52:43;;;;;;;12.77;2.50;;;;;;;17.64;82.53;101793.84;4990190;28;20120;-81
2022/02/02 11:55:12;;;;;;;24.10;4.32;;;;;;;17.11;84.09;101783.34;5006263;28;20039;-84
2022/02/02 11:57:53;;;;;;;14.30;2.25;;;;;;;15.90;86.45;101772.00;5005801;28;20036;-83
2022/02/02 12:50:27;;;;;;;7.65;1.38;;;;;;;12.32;99.81;101801.63;4996832;28;20068;-79
2022/02/02 13:03:13;;;;;;;3.47;1.10;;;;;;;12.30;91.44;101774.00;4998618;28;20566;-82
2022/02/02 13:05:42;;;;;;;6.68;1.45;;;;;;;12.26;91.00;101774.47;5012380;28;20499;-81
2022/02/02 13:08:08;;;;;;;6.07;1.85;;;;;;;12.23;88.51;101759.47;4997593;28;20092;-80
2022/02/02 13:10:41;;;;;;;5.80;1.38;;;;;;;12.07;89.34;101760.22;4998030;28;20109;-80
2022/02/02 13:13:22;;;;;;;7.93;1.42;;;;;;;11.75;90.83;101763.56;4994232;28;20399;-80
2022/02/02 13:15:59;;;;;;;7.60;1.40;;;;;;;11.51;91.93;101766.06;4999986;28;20069;-81
2022/02/02 13:18:35;;;;;;;3.88;1.40;;;;;;;11.47;92.64;101753.94;5014013;28;20498;-80
2022/02/02 13:23:58;;;;;;;6.55;1.55;;;;;;;11.32;94.53;101732.13;4998771;28;20033;-81
2022/02/02 13:26:31;;;;;;;5.53;1.42;;;;;;;11.37;94.77;101736.03;5012017;28;20030;-84
2022/02/02 13:54:11;;;;;;;4.07;1.10;;;;;;;12.95;88.81;101678.84;5007842;28;20096;-80
2022/02/02 13:57:05;;;;;;;6.65;1.08;;;;;;;12.62;88.08;101675.28;4998695;28;20472;-81
2022/02/02 14:00:26;;;;;;;3.63;1.20;;;;;;;12.01;89.42;101668.38;4999343;28;20037;-79
2022/02/02 14:08:59;;;;;;;4.60;1.58;;;;;;;10.95;95.41;101688.25;5009846;28;20026;-80
2022/02/02 14:33:15;;;;;;;1.27;1.10;;;;;;;19.97;53.90;101643.41;4994583;28;20038;-81
2022/02/02 14:35:45;;;;;;;4.40;1.17;;;;;;;21.63;46.98;101648.75;4980640;28;20100;-81
2022/02/02 14:38:15;;;;;;;4.47;2.20;;;;;;;19.37;52.74;101628.25;4997287;28;20069;-80
2022/02/02 14:43:34;;;;;;;7.70;1.48;;;;;;;14.41;70.71;101647.97;4997161;28;20193;-80
2022/02/02 14:46:07;;;;;;;5.03;1.23;;;;;;;12.97;77.81;101619.28;4991260;28;20524;-84
2022/02/02 14:48:38;;;;;;;4.88;1.60;;;;;;;12.29;82.06;101612.34;5012248;28;20029;-79
2022/02/02 14:54:02;;;;;;;5.68;1.50;;;;;;;11.40;88.91;101627.16;5012865;28;20038;-81
2022/02/02 15:08:58;;;;;;;2.35;1.23;;;;;;;9.85;100.00;101614.03;5018675;28;20435;-85
2022/02/02 15:30:08;;;;;;;3.47;1.20;;;;;;;9.34;100.00;101614.53;4999551;28;20749;-85
2022/02/02 15:32:32;;;;;;;2.60;1.30;;;;;;;9.22;100.00;101611.22;5010461;28;20148;-86
2022/02/02 15:34:59;;;;;;;4.85;1.48;;;;;;;9.08;100.00;101593.75;4975781;28;20034;-87
2022/02/02 15:37:42;;;;;;;6.47;2.85;;;;;;;8.99;100.00;101594.59;5009115;28;20060;-89
2022/02/02 15:40:14;;;;;;;4.97;2.75;;;;;;;9.02;100.00;101602.34;5002281;28;20030;-86
2022/02/02 15:58:34;;;;;;;6.03;2.10;;;;;;;8.73;100.00;101597.03;5013223;28;20036;-85
2022/02/02 16:03:29;;;;;;;4.22;2.55;;;;;;;8.53;100.00;101567.59;5021991;28;20468;-87
2022/02/02 16:06:00;;;;;;;4.13;2.10;;;;;;;8.61;100.00;101574.91;5001981;28;20046;-86
2022/02/02 16:08:29;;;;;;;5.40;2.42;;;;;;;8.61;100.00;101569.56;4988609;28;20040;-86
2022/02/02 16:13:31;;;;;;;2.65;1.55;;;;;;;8.61;100.00;101577.59;5010556;28;20042;-85
2022/02/02 16:17:00;;;;;;;5.65;1.83;;;;;;;8.51;100.00;101558.84;4995061;28;20041;-86
2022/02/02 16:35:28;;;;;;;6.15;2.40;;;;;;;8.29;100.00;101522.44;4996196;28;20083;-89
2022/02/02 16:37:56;;;;;;;9.05;4.85;;;;;;;8.22;100.00;101525.84;5008493;28;20108;-83
2022/02/02 16:40:37;;;;;;;7.43;3.30;;;;;;;8.03;100.00;101505.25;4980011;28;20060;-86
2022/02/02 16:45:35;;;;;;;9.35;5.30;;;;;;;8.06;100.00;101518.38;5009339;28;20129;-85
2022/02/02 16:48:04;;;;;;;7.70;4.43;;;;;;;8.09;100.00;101520.75;5009386;28;20034;-85
2022/02/02 16:50:35;;;;;;;18.63;8.45;;;;;;;8.03;100.00;101518.66;4993105;28;20030;-84
2022/02/02 16:53:07;;;;;;;19.33;8.50;;;;;;;8.03;100.00;101519.50;4976356;28;20037;-86
2022/02/02 16:55:41;;;;;;;14.75;8.00;;;;;;;7.95;100.00;101497.09;4993969;28;20033;-87
2022/02/02 17:31:12;;;;;;;8.57;3.80;;;;;;;7.90;100.00;101490.31;5004723;28;20034;-84
2022/02/02 17:34:05;;;;;;;15.63;7.20;;;;;;;7.94;100.00;101496.25;4995792;28;20419;-88
2022/02/02 17:36:35;;;;;;;13.43;5.70;;;;;;;7.85;100.00;101479.16;5010211;28;20030;-89
2022/02/02 17:39:10;;;;;;;12.77;4.27;;;;;;;7.96;100.00;101493.41;5021979;28;20036;-89
2022/02/02 18:04:00;;;;;;;15.52;7.22;;;;;;;7.45;100.00;101442.66;4996055;28;20088;-89
2022/02/02 18:20:51;;;;;;;18.88;9.55;;;;;;;7.37;100.00;101436.31;4980988;28;20033;-88
2022/02/02 18:26:12;;;;;;;12.00;7.30;;;;;;;7.40;100.00;101428.84;5011566;28;19913;-87
2022/02/02 18:31:41;;;;;;;7.18;4.03;;;;;;;7.43;100.00;101425.88;4993141;28;20530;-86
2022/02/02 18:34:25;;;;;;;7.80;3.35;;;;;;;7.31;100.00;101402.94;5012745;28;20091;-87
2022/02/02 18:57:48;;;;;;;4.35;3.33;;;;;;;7.19;100.00;101356.72;4977057;28;20140;-86
2022/02/02 19:05:28;;;;;;;16.40;7.70;;;;;;;7.31;100.00;101365.47;4990378;28;20061;-87
2022/02/02 20:02:25;;;;;;;5.95;4.43;;;;;;;7.40;100.00;101311.13;5007427;28;20399;-87
2022/02/02 20:12:34;;;;;;;3.42;2.47;;;;;;;7.43;100.00;101277.88;4983797;28;20384;-87
2022/02/02 20:15:01;;;;;;;7.63;4.57;;;;;;;7.46;100.00;101286.47;5008052;28;20061;-88
2022/02/02 20:17:27;;;;;;;25.95;6.97;;;;;;;7.42;100.00;101286.91;4990960;28;20041;-88
2022/02/02 20:19:59;;;;;;;10.15;7.85;;;;;;;7.43;100.00;101294.78;4976229;28;20058;-87
2022/02/02 20:22:28;;;;;;;9.60;5.50;;;;;;;7.33;100.00;101271.69;4992266;28;20041;-87
2022/02/02 20:25:04;;;;;;;3.05;1.95;;;;;;;7.42;100.00;101297.59;5008717;28;20040;-87
2022/02/02 20:27:32;;;;;;;6.85;3.40;;;;;;;7.32;100.00;101278.88;4992947;28;20037;-87
2022/02/02 20:29:59;;;;;;;8.07;5.93;;;;;;;7.37;100.00;101291.84;5007070;28;20480;-87
2022/02/02 20:32:25;;;;;;;10.43;6.15;;;;;;;7.39;100.00;101290.72;4992165;28;20037;-87
2022/02/02 20:34:53;;;;;;;7.75;5.13;;;;;;;7.35;100.00;101297.31;5009179;28;20436;-88
2022/02/02 20:37:24;;;;;;;15.23;6.60;;;;;;;7.35;100.00;101288.44;4975568;28;21594;-87
2022/02/02 20:39:56;;;;;;;14.80;5.40;;;;;;;7.33;100.00;101282.38;5006394;28;20434;-87
2022/02/02 20:42:42;;;;;;;15.70;5.43;;;;;;;7.32;100.00;101286.91;5019492;28;20065;-87
2022/02/02 21:09:53;;;;;;;9.20;4.35;;;;;;;7.15;100.00;101242.16;5026374;28;20119;-85
2022/02/02 21:15:12;;;;;;;12.00;6.63;;;;;;;7.10;100.00;101220.34;4997047;28;20065;-86
2022/02/02 21:17:39;;;;;;;17.88;6.60;;;;;;;7.12;100.00;101231.72;4996807;28;20468;-88
2022/02/02 21:20:22;;;;;;;5.68;3.20;;;;;;;7.06;100.00;101211.75;4993429;28;20076;-87
2022/02/02 21:22:56;;;;;;;15.88;6.72;;;;;;;7.03;100.00;101207.53;4997561;28;20099;-86
2022/02/02 21:28:11;;;;;;;7.57;3.75;;;;;;;7.21;100.00;101236.25;4981338;28;20044;-89
2022/02/02 21:30:39;;;;;;;10.40;5.28;;;;;;;7.08;100.00;101216.97;5025942;28;20042;-88
2022/02/02 21:33:12;;;;;;;5.35;3.22;;;;;;;7.19;100.00;101227.50;4979667;28;20049;-87
2022/02/02 21:35:39;;;;;;;4.95;2.97;;;;;;;7.20;100.00;101215.84;5010806;28;20033;-88
2022/02/02 21:38:11;;;;;;;6.00;3.13;;;;;;;7.22;100.00;101221.88;4995415;28;20034;-87
2022/02/02 21:40:40;;;;;;;3.38;2.15;;;;;;;7.13;100.00;101202.19;5010648;28;20495;-88
2022/02/02 21:43:05;;;;;;;2.58;1.73;;;;;;;7.20;100.00;101207.81;5011406;28;20641;-88
2022/02/02 21:45:31;;;;;;;2.92;2.63;;;;;;;7.17;100.00;101198.25;5010303;28;20057;-88
2022/02/02 21:48:01;;;;;;;2.95;1.67;;;;;;;6.96;100.00;101165.44;4980745;28;20177;-88
2022/02/02 21:50:43;;;;;;;6.57;2.97;;;;;;;7.20;100.00;101211.34;5011062;28;20048;-88
2022/02/02 21:53:11;;;;;;;4.75;2.63;;;;;;;7.20;100.00;101208.66;5012944;28;20033;-88
2022/02/02 21:55:40;;;;;;;6.97;3.25;;;;;;;7.11;100.00;101192.59;4978363;28;20034;-88
2022/02/02 21:58:05;;;;;;;4.55;2.42;;;;;;;7.16;100.00;101199.22;4979538;28;20045;-86
2022/02/02 22:00:31;;;;;;;9.07;5.03;;;;;;;7.20;100.00;101199.78;5009774;28;20053;-86
2022/02/02 22:03:20;;;;;;;6.45;2.88;;;;;;;7.19;100.00;101211.47;5009230;28;20101;-87
2022/02/02 22:05:49;;;;;;;7.78;4.15;;;;;;;7.10;100.00;101185.59;5002162;28;20034;-88
2022/02/02 22:08:17;;;;;;;10.88;5.22;;;;;;;7.07;100.00;101169.84;5006815;28;20033;-88
2022/02/02 22:10:44;;;;;;;5.30;3.35;;;;;;;7.00;100.00;101161.53;5012078;28;20380;-87
2022/02/02 22:13:09;;;;;;;4.47;2.50;;;;;;;7.10;100.00;101169.53;5012125;28;20034;-87
2022/02/02 22:15:49;;;;;;;5.78;4.28;;;;;;;7.11;100.00;101181.91;5011598;28;20045;-88
2022/02/02 22:18:17;;;;;;;6.47;4.60;;;;;;;6.99;100.00;101158.00;4995752;28;20046;-88
2022/02/02 22:20:44;;;;;;;4.22;2.38;;;;;;;6.98;100.00;101144.78;5003248;28;20092;-88
2022/02/02 22:23:09;;;;;;;10.38;5.95;;;;;;;7.07;100.00;101159.13;5009863;28;20471;-87
2022/02/02 22:25:35;;;;;;;14.40;5.93;;;;;;;7.02;100.00;101157.72;5002610;28;20125;-88
2022/02/02 22:28:01;;;;;;;11.75;5.53;;;;;;;7.01;100.00;101145.34;4999395;28;20076;-87
2022/02/02 22:30:26;;;;;;;9.25;5.03;;;;;;;7.14;100.00;101165.56;4974979;28;20034;-88
2022/02/02 22:32:52;;;;;;;15.43;4.68;;;;;;;7.13;100.00;101169.25;5003675;28;20168;-89
2022/02/02 22:35:18;;;;;;;3.55;2.40;;;;;;;7.18;100.00;101161.63;5011278;28;20083;-86
2022/02/02 22:37:44;;;;;;;15.45;6.10;;;;;;;7.17;100.00;101163.47;5003859;28;20460;-88
2022/02/02 22:40:14;;;;;;;9.55;4.72;;;;;;;7.17;100.00;101162.59;5005659;28;20046;-87
2022/02/02 22:42:40;;;;;;;7.82;4.78;;;;;;;7.14;100.00;101149.53;5006980;28;20052;-85
2022/02/02 22:45:09;;;;;;;15.15;6.95;;;;;;;7.16;100.00;101153.75;4987149;28;20388;-88
2022/02/02 22:47:36;;;;;;;3.25;2.35;;;;;;;7.13;100.00;101148.69;5009227;28;20459;-87
2022/02/02 22:50:04;;;;;;;11.40;5.13;;;;;;;7.15;100.00;101151.25;4989115;28;20041;-85
2022/02/02 22:52:30;;;;;;;8.30;3.75;;;;;;;7.04;100.00;101136.19;5002374;28;20034;-85
2022/02/02 22:54:56;;;;;;;13.88;5.38;;;;;;;7.09;100.00;101143.78;4998890;28;20376;-87
2022/02/02 22:57:22;;;;;;;13.23;5.75;;;;;;;7.04;100.00;101139.72;4999962;28;20120;-86
2022/02/02 22:59:51;;;;;;;7.07;3.55;;;;;;;7.09;100.00;101151.78;4986928;28;20095;-85
2022/02/02 23:04:44;;;;;;;2.65;2.20;;;;;;;7.08;100.00;101139.41;5002152;28;20026;-83
2022/02/02 23:07:09;;;;;;;4.53;3.08;;;;;;;6.98;100.00;101126.91;4989411;28;20049;-86
2022/02/02 23:09:36;;;;;;;5.20;2.95;;;;;;;7.07;100.00;101141.25;5006829;28;20030;-86
2022/02/02 23:12:02;;;;;;;9.82;4.38;;;;;;;7.08;100.00;101137.59;4973987;28;20026;-86
2022/02/02 23:14:33;;;;;;;11.82;4.28;;;;;;;7.01;100.00;101129.31;5007175;28;20079;-86
2022/02/02 23:16:59;;;;;;;8.70;4.53;;;;;;;7.11;100.00;101139.13;4981426;28;20049;-87
2022/02/02 23:19:30;;;;;;;2.00;1.65;;;;;;;6.86;100.00;101098.66;5011496;28;20507;-88